地図

経路データ

SID SEASON NUMBER BASIN SUBBASIN NAME ISO_TIME NATURE LAT LON WMO_WIND WMO_PRES WMO_AGENCY TRACK_TYPE DIST2LAND LANDFALL IFLAG USA_AGENCY USA_ATCF_ID USA_LAT USA_LON USA_RECORD USA_STATUS USA_WIND USA_PRES USA_SSHS USA_R34_NE USA_R34_SE USA_R34_SW USA_R34_NW USA_R50_NE USA_R50_SE USA_R50_SW USA_R50_NW USA_R64_NE USA_R64_SE USA_R64_SW USA_R64_NW USA_POCI USA_ROCI USA_RMW USA_EYE TOKYO_LAT TOKYO_LON TOKYO_GRADE TOKYO_WIND TOKYO_PRES TOKYO_R50_DIR TOKYO_R50_LONG TOKYO_R50_SHORT TOKYO_R30_DIR TOKYO_R30_LONG TOKYO_R30_SHORT TOKYO_LAND CMA_LAT CMA_LON CMA_CAT CMA_WIND CMA_PRES HKO_LAT HKO_LON HKO_CAT HKO_WIND HKO_PRES NEWDELHI_LAT NEWDELHI_LON NEWDELHI_GRADE NEWDELHI_WIND NEWDELHI_PRES NEWDELHI_CI NEWDELHI_DP NEWDELHI_POCI REUNION_LAT REUNION_LON REUNION_TYPE REUNION_WIND REUNION_PRES REUNION_TNUM REUNION_CI REUNION_RMW REUNION_R34_NE REUNION_R34_SE REUNION_R34_SW REUNION_R34_NW REUNION_R50_NE REUNION_R50_SE REUNION_R50_SW REUNION_R50_NW REUNION_R64_NE REUNION_R64_SE REUNION_R64_SW REUNION_R64_NW BOM_LAT BOM_LON BOM_TYPE BOM_WIND BOM_PRES BOM_TNUM BOM_CI BOM_RMW BOM_R34_NE BOM_R34_SE BOM_R34_SW BOM_R34_NW BOM_R50_NE BOM_R50_SE BOM_R50_SW BOM_R50_NW BOM_R64_NE BOM_R64_SE BOM_R64_SW BOM_R64_NW BOM_ROCI BOM_POCI BOM_EYE BOM_POS_METHOD BOM_PRES_METHOD NADI_LAT NADI_LON NADI_CAT NADI_WIND NADI_PRES WELLINGTON_LAT WELLINGTON_LON WELLINGTON_WIND WELLINGTON_PRES DS824_LAT DS824_LON DS824_STAGE DS824_WIND DS824_PRES TD9636_LAT TD9636_LON TD9636_STAGE TD9636_WIND TD9636_PRES TD9635_LAT TD9635_LON TD9635_WIND TD9635_PRES TD9635_ROCI NEUMANN_LAT NEUMANN_LON NEUMANN_CLASS NEUMANN_WIND NEUMANN_PRES MLC_LAT MLC_LON MLC_CLASS MLC_WIND MLC_PRES USA_GUST BOM_GUST BOM_GUST_PER REUNION_GUST REUNION_GUST_PER USA_SEAHGT USA_SEARAD_NE USA_SEARAD_SE USA_SEARAD_SW USA_SEARAD_NW STORM_SPEED STORM_DIR
1920264N15117 1920 41 WP MM NOT_NAMED 1920-09-20 10:00:00 NR 14.8000 116.700 main 348 348 __________O___ -1 14.8000 116.700 7 10 274
1920264N15117 1920 41 WP MM NOT_NAMED 1920-09-20 12:00:00 NR 14.8208 116.361 main 378 388 __________P___ -1 14.8208 116.361 7 10 274
1920264N15117 1920 41 WP MM NOT_NAMED 1920-09-20 15:00:00 NR 14.8499 115.868 main 429 435 __________P___ -1 14.8499 115.868 7 9 273
1920264N15117 1920 41 WP MM NOT_NAMED 1920-09-20 18:00:00 NR 14.8751 115.411 main 477 477 __________P___ -1 14.8751 115.411 7 8 273
1920264N15117 1920 41 WP MM NOT_NAMED 1920-09-20 21:00:00 NR 14.8948 115.015 main 518 518 __________P___ -1 14.8948 115.015 7 7 273
1920264N15117 1920 41 WP MM NOT_NAMED 1920-09-20 22:00:00 NR 14.9000 114.900 main 529 529 __________O___ -1 14.9000 114.900 3 6 272
1920264N15117 1920 41 WP MM NOT_NAMED 1920-09-21 00:00:00 NR 14.9079 114.699 main 550 550 __________P___ -1 14.9079 114.699 3 5 272
1920264N15117 1920 41 WP MM NOT_NAMED 1920-09-21 03:00:00 NR 14.9139 114.453 main 570 550 __________P___ -1 14.9139 114.453 3 4 271
1920264N15117 1920 41 WP MM NOT_NAMED 1920-09-21 06:00:00 NR 14.9128 114.251 main 550 529 __________P___ -1 14.9128 114.251 3 4 269
1920264N15117 1920 41 WP MM NOT_NAMED 1920-09-21 09:00:00 NR 14.9045 114.064 main 529 518 __________P___ -1 14.9045 114.064 3 4 267
1920264N15117 1920 41 WP MM NOT_NAMED 1920-09-21 10:00:00 NR 14.9000 114.000 main 518 508 __________O___ -1 14.9000 114.000 4 4 265
1920264N15117 1920 41 WP MM NOT_NAMED 1920-09-21 12:00:00 NR 14.8887 113.876 main 508 487 __________P___ -1 14.8887 113.876 4 4 263
1920264N15117 1920 41 WP MM NOT_NAMED 1920-09-21 15:00:00 NR 14.8657 113.691 main 487 463 __________P___ -1 14.8657 113.691 4 4 262
1920264N15117 1920 41 WP MM NOT_NAMED 1920-09-21 18:00:00 NR 14.8381 113.479 main 463 432 __________P___ -1 14.8381 113.479 4 5 263
1920264N15117 1920 41 WP MM NOT_NAMED 1920-09-21 21:00:00 NR 14.8093 113.209 main 432 421 __________P___ -1 14.8093 113.209 4 6 264
1920264N15117 1920 41 WP MM NOT_NAMED 1920-09-21 22:00:00 NR 14.8000 113.100 main 421 390 __________O___ -1 14.8000 113.100 4 7 265
1920264N15117 1920 41 WP MM NOT_NAMED 1920-09-22 00:00:00 NR 14.7782 112.846 main 390 345 __________P___ -1 14.7782 112.846 4 8 265
1920264N15117 1920 41 WP MM NOT_NAMED 1920-09-22 03:00:00 NR 14.7453 112.401 main 345 294 __________P___ -1 14.7453 112.401 4 9 266
1920264N15117 1920 41 WP MM NOT_NAMED 1920-09-22 06:00:00 NR 14.7176 111.903 main 294 243 __________P___ -1 14.7176 111.903 4 10 267
1920264N15117 1920 41 WP MM NOT_NAMED 1920-09-22 09:00:00 NR 14.7016 111.377 main 243 223 __________P___ -1 14.7016 111.377 4 10 269
1920264N15117 1920 41 WP MM NOT_NAMED 1920-09-22 10:00:00 NR 14.7000 111.200 main 223 193 __________O___ -1 14.7000 111.200 4 10 270
1920264N15117 1920 41 WP MM NOT_NAMED 1920-09-22 12:00:00 NR 14.6999 110.856 main 193 129 __________P___ -1 14.6999 110.856 4 10 271
1920264N15117 1920 41 WP MM NOT_NAMED 1920-09-22 15:00:00 NR 14.7124 110.328 main 129 75 __________P___ -1 14.7124 110.328 4 10 272
1920264N15117 1920 41 WP MM NOT_NAMED 1920-09-22 18:00:00 NR 14.7399 109.795 main 75 24 __________P___ -1 14.7399 109.795 4 10 274
1920264N15117 1920 41 WP MM NOT_NAMED 1920-09-22 21:00:00 NR 14.7825 109.271 main 24 10 __________P___ -1 14.7825 109.271 4 10 275
1920264N15117 1920 41 WP MM NOT_NAMED 1920-09-22 22:00:00 NR 14.8000 109.100 main 10 0 __________O___ -1 14.8000 109.100 2 10 275
1920264N15117 1920 41 WP MM NOT_NAMED 1920-09-23 00:00:00 NR 14.8251 108.772 main 0 0 __________P___ -1 14.8251 108.772 2 9 276
1920264N15117 1920 41 WP MM NOT_NAMED 1920-09-23 03:00:00 NR 14.8754 108.292 main 0 0 __________P___ -1 14.8754 108.292 2 9 278
1920264N15117 1920 41 WP MM NOT_NAMED 1920-09-23 06:00:00 NR 14.9491 107.822 main 0 0 __________P___ -1 14.9491 107.822 2 9 281
1920264N15117 1920 41 WP MM NOT_NAMED 1920-09-23 09:00:00 NR 15.0556 107.356 main 0 0 __________P___ -1 15.0556 107.356 2 9 284
1920264N15117 1920 41 WP MM NOT_NAMED 1920-09-23 10:00:00 NR 15.1000 107.200 main 0 0 __________O___ -1 15.1000 107.200 2 10 288
1920264N15117 1920 41 WP MM NOT_NAMED 1920-09-23 12:00:00 NR 15.2031 106.887 main 0 0 __________P___ -1 15.2031 106.887 2 10 291
1920264N15117 1920 41 WP MM NOT_NAMED 1920-09-23 15:00:00 NR 15.3880 106.414 main 0 0 __________P___ -1 15.3880 106.414 2 10 293
1920264N15117 1920 41 WP MM NOT_NAMED 1920-09-23 18:00:00 NR 15.5987 105.938 main 0 0 __________P___ -1 15.5987 105.938 2 10 295
1920264N15117 1920 41 WP MM NOT_NAMED 1920-09-23 21:00:00 NR 15.8238 105.460 main 0 0 __________P___ -1 15.8238 105.460 2 10 296
1920264N15117 1920 41 WP MM NOT_NAMED 1920-09-23 22:00:00 NR 15.9000 105.300 main 0 __________O___ -1 15.9000 105.300 2 10 296

デジタル台風データ・検索

IBTrACS Databaseについて

本データベースは、米国NOAAが公開する1842年以降の世界の熱帯低気圧のベストトラックデータアーカイブInternational Best Track Archive for Climate Stewardship (IBTrACS)を、ウェブで閲覧しやすい形式に変換したものです。

最終更新日:2021-12-06